Palmer, IL (62556)

2:39 AM CST on January 26, 2015 (GMT -0600)
RURAL KINCAID IL USA | Change Station
CLOSE
Current Station
Personal Weather Station
Location: PAWNEE, IL
Elevation: 610 ft
Nearby Weather Stations

Elev 610 ft 39.57 °N, 89.43 °W | Updated 4 minutes ago

Overcast
Overcast
25.3 °F
Feels Like 14 °F
N
12.0
Wind Variable Wind from NW
Gusts 13.0 mph

Today
High -- | Low -- °F
--% Chance of Precip.
Yesterday
High -- | Low -- °F
Precip. -- in
7:10 AM 5:10 PM
Waxing Crescent, 41% visible
Pressure 30.02 in
Visibility 10.0 miles
Clouds Overcast 1400 ft
Windchill 14 °F
Dew Point 17 °F
Humidity 69%
Rainfall 0.00 in
Snow Depth Not available.
UV 0 out of 12
Pollen .10 out of 12
Air Quality Not available.
Flu Activity Not available.
METAR KTAZ 260815Z AUTO 33013KT 10SM OVC014 M03/M06 A3002 RMK AO2

More Conditions Fewer Conditions

Pressure 30.02 in
Visibility 10.0 miles
Clouds Overcast 1400 ft
Windchill 14 °F
Dew Point 17 °F
Humidity 69%
Rainfall 0.00 in
Snow Depth Not available.
UV 0 out of 12
Pollen .10 out of 12
Air Quality Not available.
Flu Activity Not available.
METAR KTAZ 260815Z AUTO 33013KT 10SM OVC014 M03/M06 A3002 RMK AO2

More Conditions Fewer Conditions

10-Day Weather Forecast

Almanac

Astronomy

Jan. 26, 2015 Rise Set
Actual Time
Civil Twilight
Nautical Twilight
Astronomical Twilight
Moon
Length of Visible Light
Length of Day
Tomorrow will be .
, % of the Moon is Illuminated

Today's Extremes

State Highs State Lows

Community

WunderPhotos

Upload Photos

1,790,163 photos uploaded!

WunderBlogs® & News

Nearby

Air Quality

  Air Quality AQ Index Pollutant
Not available.

Snow Depth

Station Depth Elevation

Earthquake Activity

City Distance Mag. Time & Date
Minimum magnitude displayed is 2.5.

Coastal Water Temperatures

Place Temperature

Nearby Weather Stations